createdAt,value
2017-04-04T00:00:27.197Z,14.38
2017-04-04T00:01:27.205Z,12.52
2017-04-04T00:02:27.166Z,14.03
2017-04-04T00:03:27.217Z,13.62
2017-04-04T00:04:27.205Z,12.63
2017-04-04T00:05:27.194Z,13.87
2017-04-04T00:06:27.925Z,13.12
2017-04-04T00:07:28.650Z,13.97
2017-04-04T00:08:29.397Z,13.33
2017-04-04T00:09:29.432Z,13.42
2017-04-04T00:10:34.762Z,15.00
2017-04-04T00:11:34.746Z,13.63
2017-04-04T00:12:34.775Z,14.55
2017-04-04T00:13:34.850Z,14.42
2017-04-04T00:14:35.561Z,13.22
2017-04-04T00:15:35.582Z,13.13
2017-04-04T00:16:35.586Z,12.82
2017-04-04T00:17:36.301Z,13.98
2017-04-04T00:18:36.285Z,14.15
2017-04-04T00:19:36.273Z,14.00
2017-04-04T00:20:36.268Z,14.65
2017-04-04T00:21:36.240Z,14.48
2017-04-04T00:22:36.264Z,14.62
2017-04-04T00:23:36.265Z,14.58
2017-04-04T00:24:36.220Z,15.65
2017-04-04T00:25:36.165Z,15.18
2017-04-04T00:26:36.135Z,14.45
2017-04-04T00:27:36.958Z,13.73
2017-04-04T00:28:36.947Z,15.48
2017-04-04T00:29:36.931Z,15.12
2017-04-04T00:30:36.925Z,14.70
2017-04-04T00:31:36.890Z,15.05
2017-04-04T00:32:37.691Z,15.23
2017-04-04T00:33:37.749Z,14.30
2017-04-04T00:34:37.722Z,15.38
2017-04-04T00:35:38.045Z,16.30
2017-04-04T00:36:37.874Z,15.30
2017-04-04T00:37:42.308Z,14.08
2017-04-04T00:38:42.290Z,16.18
2017-04-04T00:39:42.327Z,15.08
2017-04-04T00:40:42.369Z,16.85
2017-04-04T00:41:42.346Z,15.10
2017-04-04T00:42:42.344Z,14.68
2017-04-04T00:43:42.322Z,15.23
2017-04-04T00:44:42.343Z,14.22
2017-04-04T00:45:42.374Z,15.25
2017-04-04T00:46:42.413Z,15.07
2017-04-04T00:47:43.201Z,15.30
2017-04-04T00:48:43.278Z,14.82
2017-04-04T00:49:43.307Z,14.93
2017-04-04T00:50:43.328Z,14.60
2017-04-04T00:51:43.273Z,15.85
2017-04-04T00:52:43.257Z,16.08
2017-04-04T00:53:43.262Z,15.43
2017-04-04T00:54:43.157Z,15.38
2017-04-04T00:55:43.064Z,15.02
2017-04-04T00:56:42.975Z,16.40
2017-04-04T00:57:42.940Z,15.32
2017-04-04T00:58:42.934Z,15.65
2017-04-04T00:59:43.588Z,16.15
2017-04-04T01:00:43.565Z,16.20
2017-04-04T01:01:43.539Z,16.58
2017-04-04T01:02:43.481Z,16.00
2017-04-04T01:03:43.452Z,16.47
2017-04-04T01:04:44.142Z,15.90
2017-04-04T01:05:44.134Z,16.10
2017-04-04T01:06:44.070Z,15.43
2017-04-04T01:07:43.959Z,15.92
2017-04-04T01:08:43.889Z,16.42
2017-04-04T01:09:44.311Z,16.65
2017-04-04T01:10:44.138Z,16.23
2017-04-04T01:11:44.127Z,15.90
2017-04-04T01:12:44.846Z,16.72
2017-04-04T01:13:45.559Z,17.87
2017-04-04T01:14:45.494Z,15.95
2017-04-04T01:15:45.477Z,16.60
2017-04-04T01:16:45.442Z,16.28
2017-04-04T01:17:45.379Z,17.33
2017-04-04T01:18:46.145Z,15.78
2017-04-04T01:19:46.729Z,16.97
2017-04-04T01:20:46.645Z,16.87
2017-04-04T01:21:47.359Z,17.05
2017-04-04T01:22:47.595Z,16.75
2017-04-04T01:23:48.215Z,16.18
2017-04-04T01:24:48.234Z,15.75
2017-04-04T01:25:48.209Z,16.13
2017-04-04T01:26:48.883Z,15.20
2017-04-04T01:27:48.829Z,16.60
2017-04-04T01:28:49.583Z,13.92
2017-04-04T01:29:49.525Z,15.77
2017-04-04T01:30:49.502Z,17.35
2017-04-04T01:31:49.438Z,15.70
2017-04-04T01:32:49.382Z,15.73
2017-04-04T01:33:49.310Z,14.10
2017-04-04T01:34:49.262Z,15.65
2017-04-04T01:35:49.223Z,16.23
2017-04-04T01:36:49.185Z,15.00
2017-04-04T01:37:49.105Z,14.92
2017-04-04T01:38:49.794Z,13.22
2017-04-04T01:39:49.713Z,14.70
2017-04-04T01:40:49.957Z,15.15
2017-04-04T01:41:49.772Z,16.07
2017-04-04T01:42:49.701Z,14.23
2017-04-04T01:43:49.637Z,15.13
2017-04-04T01:44:49.874Z,15.12
2017-04-04T01:45:49.649Z,16.18
2017-04-04T01:46:49.628Z,17.05
2017-04-04T01:47:49.563Z,16.47
2017-04-04T01:48:49.608Z,16.37
2017-04-04T01:49:50.251Z,16.25
2017-04-04T01:50:50.214Z,15.28
2017-04-04T01:51:50.449Z,15.53
2017-04-04T01:52:50.229Z,16.03
2017-04-04T01:53:50.959Z,15.12
2017-04-04T01:54:51.681Z,17.13
2017-04-04T01:55:51.624Z,17.38
2017-04-04T01:56:51.560Z,15.92
2017-04-04T01:57:51.514Z,16.80
2017-04-04T01:58:51.479Z,16.58
2017-04-04T01:59:51.438Z,16.15
2017-04-04T02:00:51.373Z,15.92
2017-04-04T02:01:51.374Z,16.20
2017-04-04T02:02:51.312Z,15.95
2017-04-04T02:03:51.225Z,15.50
2017-04-04T02:04:51.949Z,16.93
2017-04-04T02:05:52.715Z,16.78
2017-04-04T02:06:52.645Z,16.02
2017-04-04T02:07:52.635Z,15.90
2017-04-04T02:08:52.583Z,15.65
2017-04-04T02:09:52.825Z,15.97
2017-04-04T02:10:53.495Z,16.12
2017-04-04T02:11:53.422Z,16.78
2017-04-04T02:12:53.656Z,16.10
2017-04-04T02:13:54.387Z,16.93
2017-04-04T02:14:55.057Z,16.48
2017-04-04T02:15:55.215Z,16.17
2017-04-04T02:16:55.861Z,17.27
2017-04-04T02:17:55.794Z,17.13
2017-04-04T02:18:55.801Z,18.28
2017-04-04T02:19:55.730Z,17.77
2017-04-04T02:20:55.967Z,17.78
2017-04-04T02:21:56.565Z,16.88
2017-04-04T02:22:56.520Z,16.00
2017-04-04T02:23:56.606Z,16.70
2017-04-04T02:24:57.292Z,16.05
2017-04-04T02:25:57.551Z,15.98
2017-04-04T02:26:58.083Z,15.97
2017-04-04T02:27:58.017Z,15.98
2017-04-04T02:28:58.309Z,17.20
2017-04-04T02:29:58.113Z,16.35
2017-04-04T02:30:58.187Z,17.80
2017-04-04T02:31:58.911Z,18.23
2017-04-04T02:32:58.853Z,17.77
2017-04-04T02:33:58.883Z,16.12
2017-04-04T02:34:58.790Z,17.02
2017-04-04T02:35:58.866Z,17.33
2017-04-04T02:36:58.823Z,16.08
2017-04-04T02:37:58.749Z,15.78
2017-04-04T02:38:58.753Z,16.87
2017-04-04T02:39:58.759Z,15.87
2017-04-04T02:40:59.434Z,17.00
2017-04-04T02:41:59.410Z,16.20
2017-04-04T02:42:59.678Z,15.97
2017-04-04T02:43:59.945Z,17.12
2017-04-04T02:44:59.774Z,16.22
2017-04-04T02:45:59.742Z,16.42
2017-04-04T02:46:59.678Z,17.50
2017-04-04T02:47:59.619Z,16.33
2017-04-04T02:49:00.335Z,15.57
2017-04-04T02:50:00.293Z,16.87
2017-04-04T02:51:00.236Z,18.10
2017-04-04T02:52:00.169Z,17.50
2017-04-04T02:53:00.823Z,16.50
2017-04-04T02:54:00.919Z,18.23
2017-04-04T02:55:00.899Z,16.57
2017-04-04T02:56:01.678Z,14.60
2017-04-04T02:57:01.633Z,16.47
2017-04-04T02:58:02.357Z,16.12
2017-04-04T02:59:03.142Z,16.17
2017-04-04T03:00:03.177Z,15.48
2017-04-04T03:01:03.953Z,14.93
2017-04-04T03:02:03.969Z,16.13
2017-04-04T03:03:03.965Z,15.77
2017-04-04T03:04:03.942Z,17.12
2017-04-04T03:05:03.931Z,15.72
2017-04-04T03:06:04.687Z,16.83
2017-04-04T03:07:04.637Z,15.97
2017-04-04T03:08:04.929Z,16.53
2017-04-04T03:09:05.211Z,17.62
2017-04-04T03:10:05.328Z,17.48
2017-04-04T03:11:05.407Z,16.23
2017-04-04T03:12:06.141Z,16.33
2017-04-04T03:13:06.110Z,17.70
2017-04-04T03:14:06.087Z,17.22
2017-04-04T03:15:06.067Z,16.13
2017-04-04T03:16:06.013Z,16.13
2017-04-04T03:17:05.997Z,16.50
2017-04-04T03:18:05.962Z,16.80
2017-04-04T03:19:06.658Z,15.95
2017-04-04T03:20:06.684Z,16.65
2017-04-04T03:21:07.366Z,16.90
2017-04-04T03:22:07.315Z,17.08
2017-04-04T03:23:08.023Z,17.28
2017-04-04T03:24:08.722Z,16.73
2017-04-04T03:25:08.684Z,16.25
2017-04-04T03:26:08.742Z,16.13
2017-04-04T03:27:08.734Z,18.47
2017-04-04T03:28:08.705Z,17.53
2017-04-04T03:29:09.446Z,16.65
2017-04-04T03:30:09.483Z,17.52
2017-04-04T03:31:09.488Z,16.10
2017-04-04T03:32:09.520Z,17.00
2017-04-04T03:33:09.763Z,17.50
2017-04-04T03:34:10.384Z,17.90
2017-04-04T03:35:10.358Z,15.37
2017-04-04T03:36:10.616Z,17.45
2017-04-04T03:37:11.187Z,17.63
2017-04-04T03:38:11.134Z,18.17
2017-04-04T03:39:11.056Z,17.83
2017-04-04T03:40:11.141Z,16.80
2017-04-04T03:41:11.105Z,16.83
2017-04-04T03:42:11.123Z,16.97
2017-04-04T03:43:11.334Z,16.40
2017-04-04T03:44:11.167Z,17.40
2017-04-04T03:45:11.166Z,17.35
2017-04-04T03:46:11.877Z,16.35
2017-04-04T03:47:12.559Z,17.22
2017-04-04T03:48:12.533Z,17.77
2017-04-04T03:49:12.486Z,17.58
2017-04-04T03:50:12.435Z,18.22
2017-04-04T03:51:12.391Z,17.72
2017-04-04T03:52:12.351Z,17.87
2017-04-04T03:53:12.394Z,17.60
2017-04-04T03:54:12.330Z,17.57
2017-04-04T03:55:12.563Z,17.33
2017-04-04T03:56:13.139Z,16.82
2017-04-04T03:57:13.063Z,15.92
2017-04-04T03:58:13.003Z,16.65
2017-04-04T03:59:12.928Z,17.72
2017-04-04T04:00:12.863Z,19.00
2017-04-04T04:01:12.905Z,18.85
2017-04-04T04:02:13.600Z,15.95
2017-04-04T04:03:13.569Z,16.80
2017-04-04T04:04:13.526Z,16.77
2017-04-04T04:05:14.202Z,16.65
2017-04-04T04:06:14.205Z,18.85
2017-04-04T04:07:14.160Z,16.92
2017-04-04T04:08:14.857Z,17.37
2017-04-04T04:09:14.796Z,17.27
2017-04-04T04:10:15.004Z,17.05
2017-04-04T04:11:14.806Z,18.68
2017-04-04T04:12:15.478Z,16.55
2017-04-04T04:13:16.007Z,16.63
2017-04-04T04:14:15.968Z,16.55
2017-04-04T04:15:16.700Z,16.23
2017-04-04T04:16:17.469Z,16.53
2017-04-04T04:17:17.437Z,17.73
2017-04-04T04:18:17.490Z,16.28
2017-04-04T04:19:17.489Z,17.57
2017-04-04T04:20:17.418Z,17.40
2017-04-04T04:21:17.703Z,17.43
2017-04-04T04:22:17.569Z,16.82
2017-04-04T04:23:18.256Z,17.85
2017-04-04T04:24:18.234Z,18.63
2017-04-04T04:25:18.237Z,18.43
2017-04-04T04:26:18.211Z,17.65
2017-04-04T04:27:18.159Z,19.45
2017-04-04T04:28:18.126Z,17.52
2017-04-04T04:29:18.098Z,18.20
2017-04-04T04:30:18.817Z,18.37
2017-04-04T04:31:18.802Z,18.67
2017-04-04T04:32:18.742Z,18.47
2017-04-04T04:33:19.481Z,19.02
2017-04-04T04:34:20.147Z,17.15
2017-04-04T04:35:20.112Z,18.03
2017-04-04T04:36:20.065Z,18.28
2017-04-04T04:37:19.990Z,19.08
2017-04-04T04:38:20.719Z,17.80
2017-04-04T04:39:21.386Z,18.73
2017-04-04T04:40:21.345Z,18.40
2017-04-04T04:41:22.069Z,18.23
2017-04-04T04:42:22.762Z,17.73
2017-04-04T04:43:22.765Z,18.70
2017-04-04T04:44:22.745Z,20.28
2017-04-04T04:45:22.706Z,18.57
2017-04-04T04:46:23.466Z,18.62
2017-04-04T04:47:23.466Z,19.13
2017-04-04T04:48:24.161Z,19.78
2017-04-04T04:49:24.958Z,18.68
2017-04-04T04:50:24.966Z,19.93
2017-04-04T04:51:24.952Z,20.82
2017-04-04T04:52:24.932Z,20.82
2017-04-04T04:53:25.617Z,19.65
2017-04-04T04:54:25.602Z,19.68
2017-04-04T04:55:25.523Z,20.30
2017-04-04T04:56:25.506Z,20.70
2017-04-04T04:57:25.461Z,19.35
2017-04-04T04:58:26.174Z,21.80
2017-04-04T04:59:26.993Z,18.63
2017-04-04T05:00:26.959Z,19.98
2017-04-04T05:01:27.221Z,20.68
2017-04-04T05:02:27.885Z,19.78
2017-04-04T05:03:27.822Z,19.68
2017-04-04T05:04:27.718Z,21.50
2017-04-04T05:05:27.685Z,20.25
2017-04-04T05:06:27.660Z,21.02
2017-04-04T05:07:27.733Z,21.03
2017-04-04T05:08:27.650Z,22.72
2017-04-04T05:09:27.646Z,22.25
2017-04-04T05:10:27.646Z,20.78
2017-04-04T05:11:27.621Z,23.78
2017-04-04T05:12:28.306Z,21.22
2017-04-04T05:13:28.275Z,23.08
2017-04-04T05:14:28.237Z,21.13
2017-04-04T05:15:28.545Z,21.87
2017-04-04T05:16:28.443Z,20.40
2017-04-04T05:17:28.426Z,21.32
2017-04-04T05:18:28.406Z,22.65
2017-04-04T05:19:29.028Z,20.63
2017-04-04T05:20:28.978Z,21.25
2017-04-04T05:21:28.972Z,19.60
2017-04-04T05:22:28.925Z,21.80
2017-04-04T05:23:28.842Z,21.60
2017-04-04T05:24:28.742Z,22.75
2017-04-04T05:25:28.705Z,20.15
2017-04-04T05:26:29.012Z,20.45
2017-04-04T05:27:28.814Z,21.97
2017-04-04T05:28:28.735Z,21.73
2017-04-04T05:29:29.422Z,21.60
2017-04-04T05:30:29.392Z,19.52
2017-04-04T05:31:29.371Z,21.55
2017-04-04T05:32:30.161Z,22.42
2017-04-04T05:33:30.077Z,21.13
2017-04-04T05:34:30.023Z,21.17
2017-04-04T05:35:29.970Z,21.30
2017-04-04T05:36:37.302Z,21.75
2017-04-04T05:37:38.077Z,20.70
2017-04-04T05:38:38.706Z,20.65
2017-04-04T05:39:38.636Z,19.47
2017-04-04T05:40:39.436Z,21.83
2017-04-04T05:41:39.406Z,23.25
2017-04-04T05:42:39.376Z,21.88
2017-04-04T05:43:40.155Z,20.47
2017-04-04T05:44:40.073Z,21.32
2017-04-04T05:45:40.017Z,20.97
2017-04-04T05:46:40.288Z,21.58
2017-04-04T05:47:40.080Z,25.10
2017-04-04T05:48:40.054Z,21.45
2017-04-04T05:49:40.082Z,22.80
2017-04-04T05:50:40.165Z,20.28
2017-04-04T05:51:40.854Z,21.68
2017-04-04T05:52:41.098Z,19.80
2017-04-04T05:53:41.700Z,22.68
2017-04-04T05:54:42.378Z,21.45
2017-04-04T05:55:42.336Z,21.42
2017-04-04T05:56:43.044Z,22.25
2017-04-04T05:57:43.274Z,20.92
2017-04-04T05:58:43.114Z,20.60
2017-04-04T05:59:43.156Z,20.98
2017-04-04T06:00:43.089Z,21.85
2017-04-04T06:01:43.798Z,22.13
2017-04-04T06:02:44.497Z,23.82
2017-04-04T06:03:44.526Z,22.77
2017-04-04T06:04:44.814Z,21.23
2017-04-04T06:05:44.963Z,22.50
2017-04-04T06:06:45.743Z,21.95
2017-04-04T06:07:45.696Z,20.75
2017-04-04T06:08:45.654Z,21.08
2017-04-04T06:09:45.632Z,21.25
2017-04-04T06:10:45.624Z,22.55
2017-04-04T06:11:45.626Z,22.07
2017-04-04T06:12:46.321Z,21.62
2017-04-04T06:13:46.258Z,21.68
2017-04-04T06:14:46.990Z,21.77
2017-04-04T06:15:46.997Z,21.28
2017-04-04T06:16:47.045Z,21.47
2017-04-04T06:17:47.001Z,21.15
2017-04-04T06:18:47.039Z,20.47
2017-04-04T06:19:47.012Z,20.05
2017-04-04T06:20:47.733Z,19.88
2017-04-04T06:21:48.494Z,20.27
2017-04-04T06:22:48.462Z,20.43
2017-04-04T06:23:49.203Z,18.98
2017-04-04T06:24:49.229Z,21.40
2017-04-04T06:25:49.263Z,22.02
2017-04-04T06:26:49.234Z,20.77
2017-04-04T06:27:49.193Z,19.50
2017-04-04T06:28:49.897Z,19.37
2017-04-04T06:29:49.839Z,20.13
2017-04-04T06:30:50.517Z,20.72
2017-04-04T06:31:50.525Z,20.52
2017-04-04T06:32:50.475Z,21.32
2017-04-04T06:33:51.168Z,20.13
2017-04-04T06:34:51.154Z,20.85
2017-04-04T06:35:51.174Z,21.58
2017-04-04T06:36:51.211Z,20.17
2017-04-04T06:37:51.915Z,20.13
2017-04-04T06:38:52.156Z,20.87
2017-04-04T06:39:52.750Z,20.68
2017-04-04T06:40:52.738Z,18.80
2017-04-04T06:41:52.710Z,20.80
2017-04-04T06:42:52.673Z,20.42
2017-04-04T06:43:53.385Z,20.75
2017-04-04T06:44:53.331Z,21.37
2017-04-04T06:45:53.270Z,22.75
2017-04-04T06:46:53.232Z,20.13
2017-04-04T06:47:53.949Z,21.50
2017-04-04T06:48:54.656Z,21.38
2017-04-04T06:49:54.913Z,20.90
2017-04-04T06:50:54.788Z,22.17
2017-04-04T06:51:54.915Z,22.28
2017-04-04T06:52:55.589Z,22.20
2017-04-04T06:53:55.639Z,21.62
2017-04-04T06:54:56.350Z,21.88
2017-04-04T06:55:57.021Z,20.30
2017-04-04T06:56:57.038Z,20.80
2017-04-04T06:57:57.036Z,21.48
2017-04-04T06:58:56.990Z,19.15
2017-04-04T06:59:57.704Z,22.55
2017-04-04T07:00:58.386Z,21.33
2017-04-04T07:01:58.388Z,19.88
2017-04-04T07:02:58.344Z,21.00
2017-04-04T07:03:59.053Z,20.92
2017-04-04T07:04:59.283Z,22.63
2017-04-04T07:05:59.146Z,19.67
2017-04-04T07:06:59.182Z,21.48
2017-04-04T07:07:59.933Z,20.63
2017-04-04T07:08:59.858Z,20.88
2017-04-04T07:09:59.801Z,21.67
2017-04-04T07:11:00.045Z,20.88
2017-04-04T07:12:00.184Z,21.95
2017-04-04T07:13:00.064Z,21.47
2017-04-04T07:13:59.998Z,22.40
2017-04-04T07:14:59.986Z,20.92
2017-04-04T07:15:59.939Z,20.75
2017-04-04T07:16:59.922Z,20.80
2017-04-04T07:17:59.855Z,19.77
2017-04-04T07:18:59.815Z,20.50
2017-04-04T07:19:59.742Z,20.90
2017-04-04T07:20:59.776Z,19.75
2017-04-04T07:22:00.074Z,21.13
2017-04-04T07:22:59.916Z,22.00
2017-04-04T07:24:00.586Z,21.95
2017-04-04T07:25:00.591Z,21.52
2017-04-04T07:26:06.842Z,22.18
2017-04-04T07:27:06.814Z,20.50
2017-04-04T07:28:06.925Z,21.95
2017-04-04T07:29:07.695Z,21.67
2017-04-04T07:30:07.705Z,24.27
2017-04-04T07:31:07.695Z,21.73
2017-04-04T07:32:07.668Z,20.38
2017-04-04T07:33:07.605Z,22.28
2017-04-04T07:34:07.577Z,25.07
2017-04-04T07:35:07.575Z,20.98
2017-04-04T07:36:08.315Z,27.60
2017-04-04T07:37:08.317Z,22.27
2017-04-04T07:38:08.326Z,25.63
2017-04-04T07:39:08.299Z,32.22
2017-04-04T07:40:08.990Z,22.18
2017-04-04T07:41:08.945Z,22.82
2017-04-04T07:42:09.759Z,22.60
2017-04-04T07:43:10.000Z,22.63
2017-04-04T07:44:10.546Z,22.30
2017-04-04T07:45:10.487Z,20.27
2017-04-04T07:46:11.243Z,22.07
2017-04-04T07:47:10.466Z,22.65
2017-04-04T07:48:10.589Z,21.18
2017-04-04T07:49:10.535Z,24.12
2017-04-04T07:50:11.288Z,27.03
2017-04-04T07:51:11.245Z,22.25
2017-04-04T07:52:12.059Z,26.98
2017-04-04T07:53:12.023Z,22.77
2017-04-04T07:54:12.092Z,23.72
2017-04-04T07:55:12.839Z,22.02
2017-04-04T07:56:12.850Z,23.28
2017-04-04T07:57:12.830Z,23.62
2017-04-04T07:58:13.638Z,27.92
2017-04-04T07:59:13.610Z,23.85
2017-04-04T08:00:14.342Z,24.93
2017-04-04T08:01:14.318Z,23.97
2017-04-04T08:02:14.295Z,24.87
2017-04-04T08:03:14.999Z,22.73
2017-04-04T08:04:15.091Z,25.10
2017-04-04T08:05:15.091Z,21.70
2017-04-04T08:06:15.077Z,22.00
2017-04-04T08:07:15.050Z,22.73
2017-04-04T08:08:15.749Z,23.83
2017-04-04T08:09:15.706Z,22.62
2017-04-04T08:10:15.682Z,24.15
2017-04-04T08:11:16.375Z,23.25
2017-04-04T08:12:16.317Z,23.52
2017-04-04T08:13:17.079Z,23.23
2017-04-04T08:14:17.081Z,23.47
2017-04-04T08:15:17.169Z,22.23
2017-04-04T08:16:17.120Z,22.08
2017-04-04T08:17:17.103Z,21.52
2017-04-04T08:18:17.121Z,22.73
2017-04-04T08:19:17.075Z,22.28
2017-04-04T08:20:17.919Z,24.52
2017-04-04T08:21:18.570Z,23.15
2017-04-04T08:22:18.562Z,24.87
2017-04-04T08:23:18.559Z,23.30
2017-04-04T08:24:18.614Z,22.63
2017-04-04T08:25:18.599Z,22.60
2017-04-04T08:26:18.553Z,22.88
2017-04-04T08:27:19.254Z,20.15
2017-04-04T08:28:19.302Z,21.52
2017-04-04T08:29:19.274Z,21.28
2017-04-04T08:30:19.515Z,23.93
2017-04-04T08:31:19.630Z,20.32
2017-04-04T08:32:19.725Z,21.87
2017-04-04T08:33:19.617Z,23.10
2017-04-04T08:34:19.599Z,20.27
2017-04-04T08:35:19.598Z,24.03
2017-04-04T08:36:19.578Z,26.95
2017-04-04T08:37:20.317Z,25.62
2017-04-04T08:38:20.322Z,30.33
2017-04-04T08:39:20.340Z,28.43
2017-04-04T08:40:20.276Z,23.02
2017-04-04T08:41:20.956Z,23.83
2017-04-04T08:42:20.903Z,28.68
2017-04-04T08:43:20.853Z,23.62
2017-04-04T08:44:20.848Z,24.52
2017-04-04T08:45:20.854Z,23.28
2017-04-04T08:46:20.818Z,25.25
2017-04-04T08:47:20.790Z,23.36
2017-04-04T08:48:20.753Z,23.00
2017-04-04T08:49:21.564Z,21.73
2017-04-04T08:50:21.542Z,23.35
2017-04-04T08:51:21.539Z,27.41
2017-04-04T08:52:21.488Z,23.06
2017-04-04T08:53:22.339Z,24.51
2017-04-04T08:54:23.126Z,32.56
2017-04-04T08:55:23.371Z,26.94
2017-04-04T08:56:23.961Z,23.72
2017-04-04T08:57:23.962Z,28.90
2017-04-04T08:58:23.940Z,23.80
2017-04-04T08:59:23.951Z,22.97
2017-04-04T09:00:24.389Z,22.51
2017-04-04T09:01:24.707Z,22.76
2017-04-04T09:02:24.562Z,26.20
2017-04-04T09:03:24.596Z,25.93
2017-04-04T09:04:24.935Z,29.77
2017-04-04T09:05:24.874Z,27.81
2017-04-04T09:06:24.830Z,27.09
2017-04-04T09:07:24.807Z,27.50
2017-04-04T09:08:24.769Z,25.14
2017-04-04T09:09:25.061Z,22.79
2017-04-04T09:10:24.984Z,22.26
2017-04-04T09:11:24.941Z,22.26
2017-04-04T09:12:24.985Z,21.21
2017-04-04T09:13:25.217Z,21.26
2017-04-04T09:14:25.956Z,23.17
2017-04-04T09:15:27.103Z,20.56
2017-04-04T09:16:27.067Z,20.87
2017-04-04T09:17:27.795Z,20.46
2017-04-04T09:18:28.501Z,21.27
2017-04-04T09:19:28.698Z,21.67
2017-04-04T09:20:34.214Z,22.63
2017-04-04T09:21:34.233Z,24.66
2017-04-04T09:22:34.183Z,21.63
2017-04-04T09:23:34.873Z,23.41
2017-04-04T09:24:34.878Z,20.16
2017-04-04T09:25:34.886Z,20.03
2017-04-04T09:26:35.145Z,20.04
2017-04-04T09:27:35.002Z,22.60
2017-04-04T09:28:35.226Z,21.09
2017-04-04T09:29:35.219Z,19.99
2017-04-04T09:30:35.203Z,20.97
2017-04-04T09:31:35.124Z,20.47
2017-04-04T09:32:35.094Z,20.61
2017-04-04T09:33:35.051Z,21.64
2017-04-04T09:34:35.014Z,20.03
2017-04-04T09:35:34.957Z,21.09
2017-04-04T09:36:34.938Z,22.10
2017-04-04T09:37:34.920Z,21.39
2017-04-04T09:38:35.587Z,20.61
2017-04-04T09:39:35.590Z,19.76
2017-04-04T09:40:35.575Z,21.17
2017-04-04T09:41:35.507Z,21.13
2017-04-04T09:42:44.322Z,19.97
2017-04-04T09:43:44.437Z,21.19
2017-04-04T09:44:44.688Z,20.60
2017-04-04T09:45:44.525Z,20.80
2017-04-04T09:46:44.479Z,20.99
2017-04-04T09:47:45.219Z,21.47
2017-04-04T09:48:45.924Z,20.66
2017-04-04T09:49:45.910Z,20.40
2017-04-04T09:50:45.883Z,20.00
2017-04-04T09:51:45.869Z,20.97
2017-04-04T09:52:45.874Z,21.04
2017-04-04T09:53:46.570Z,19.89
2017-04-04T09:54:47.355Z,19.49
2017-04-04T09:55:47.281Z,20.07
2017-04-04T09:56:47.262Z,19.86
2017-04-04T09:57:47.199Z,20.70
2017-04-04T09:58:47.170Z,22.50
2017-04-04T09:59:47.164Z,18.96
2017-04-04T10:00:47.125Z,20.43
2017-04-04T10:01:47.405Z,21.01
2017-04-04T10:02:47.247Z,18.61
2017-04-04T10:03:47.939Z,19.00
2017-04-04T10:04:47.932Z,18.34
2017-04-04T10:05:47.907Z,19.01
2017-04-04T10:06:47.846Z,18.80
2017-04-04T10:07:47.794Z,19.20
2017-04-04T10:08:48.490Z,19.73
2017-04-04T10:09:48.747Z,20.09
2017-04-04T10:10:49.364Z,19.94
2017-04-04T10:11:50.118Z,20.67
2017-04-04T10:12:50.693Z,19.86
2017-04-04T10:13:51.382Z,19.70
2017-04-04T10:14:51.358Z,19.27
2017-04-04T10:15:51.420Z,19.80
2017-04-04T10:16:51.639Z,19.24
2017-04-04T10:17:51.469Z,20.00
2017-04-04T10:18:51.476Z,19.80
2017-04-04T10:19:51.449Z,20.40
2017-04-04T10:20:52.171Z,17.97
2017-04-04T10:21:52.125Z,18.61
2017-04-04T10:22:52.162Z,17.24
2017-04-04T10:23:52.119Z,18.24
2017-04-04T10:24:52.096Z,18.37
2017-04-04T10:25:52.077Z,21.29
2017-04-04T10:26:52.054Z,19.26
2017-04-04T10:27:51.986Z,20.34
2017-04-04T10:28:51.958Z,19.00
2017-04-04T10:29:51.927Z,20.89
2017-04-04T10:30:52.765Z,21.14
2017-04-04T10:31:53.413Z,21.73
2017-04-04T10:32:53.355Z,21.23
2017-04-04T10:33:53.330Z,22.67
2017-04-04T10:34:53.342Z,22.13
2017-04-04T10:35:53.297Z,22.07
2017-04-04T10:36:54.102Z,22.36
2017-04-04T10:37:54.062Z,21.34
2017-04-04T10:38:54.069Z,21.39
2017-04-04T10:39:54.051Z,21.30
2017-04-04T10:40:54.801Z,20.63
2017-04-04T10:41:54.729Z,21.13
2017-04-04T10:42:54.685Z,20.89
2017-04-04T10:43:55.375Z,17.97
2017-04-04T10:44:55.337Z,18.84
2017-04-04T10:45:55.294Z,18.06
2017-04-04T10:46:55.266Z,17.64
2017-04-04T10:47:55.226Z,17.97
2017-04-04T10:48:55.930Z,17.69
2017-04-04T10:49:55.910Z,21.77
2017-04-04T10:50:55.869Z,22.33
2017-04-04T10:51:56.622Z,24.57
2017-04-04T10:52:56.618Z,22.81
2017-04-04T10:53:56.592Z,23.40
2017-04-04T10:54:56.570Z,22.86
2017-04-04T10:55:56.618Z,23.40
2017-04-04T10:56:57.358Z,22.11
2017-04-04T10:57:57.305Z,21.93
2017-04-04T10:58:57.369Z,26.36
2017-04-04T10:59:58.067Z,25.37
2017-04-04T11:00:58.816Z,25.31
2017-04-04T11:01:59.511Z,21.74
2017-04-04T11:03:00.202Z,21.64
2017-04-04T11:04:00.177Z,22.61
2017-04-04T11:05:00.146Z,20.97
2017-04-04T11:06:00.810Z,21.57
2017-04-04T11:07:00.790Z,23.40
2017-04-04T11:08:01.499Z,23.79
2017-04-04T11:09:02.198Z,22.70
2017-04-04T11:10:02.142Z,24.29
2017-04-04T11:11:12.045Z,21.83
2017-04-04T11:12:11.999Z,20.03
2017-04-04T11:13:11.997Z,20.23
2017-04-04T11:14:12.689Z,23.57
2017-04-04T11:15:13.690Z,23.66
2017-04-04T11:16:13.634Z,21.21
2017-04-04T11:17:13.885Z,25.47
2017-04-04T11:18:14.442Z,26.46
2017-04-04T11:19:14.419Z,28.16
2017-04-04T11:20:14.384Z,28.97
2017-04-04T11:21:15.233Z,27.77
2017-04-04T11:22:15.979Z,28.59
2017-04-04T11:23:16.015Z,25.53
2017-04-04T11:24:15.957Z,25.21
2017-04-04T11:25:16.716Z,25.34
2017-04-04T11:26:16.663Z,23.51
2017-04-04T11:27:16.650Z,22.99
2017-04-04T11:28:16.646Z,23.74
2017-04-04T11:29:16.590Z,26.11
2017-04-04T11:30:17.285Z,24.93
2017-04-04T11:31:17.270Z,23.04
2017-04-04T11:32:17.254Z,24.80
2017-04-04T11:33:17.961Z,23.66
2017-04-04T11:34:18.789Z,22.86
2017-04-04T11:35:18.766Z,26.27
2017-04-04T11:36:18.719Z,24.91
2017-04-04T11:37:18.790Z,24.00
2017-04-04T11:38:18.785Z,24.24
2017-04-04T11:39:20.018Z,23.64
2017-04-04T11:40:20.014Z,25.40
2017-04-04T11:41:20.076Z,23.77
2017-04-04T11:42:20.805Z,24.20
2017-04-04T11:43:20.850Z,23.87
2017-04-04T11:44:20.786Z,22.13
2017-04-04T11:45:21.551Z,23.23
2017-04-04T11:46:21.538Z,22.76
2017-04-04T11:47:22.581Z,21.87
2017-04-04T11:48:22.525Z,21.51
2017-04-04T11:49:22.498Z,21.06
2017-04-04T11:50:22.461Z,20.91
2017-04-04T11:51:22.406Z,20.57
2017-04-04T11:52:22.510Z,20.94
2017-04-04T11:53:23.209Z,21.56
2017-04-04T11:54:30.546Z,20.83
2017-04-04T11:55:36.105Z,20.97
2017-04-04T11:56:36.034Z,21.14
2017-04-04T11:57:36.874Z,21.89
2017-04-04T11:58:36.774Z,21.74
2017-04-04T11:59:36.698Z,21.43
2017-04-04T12:00:36.659Z,21.43
2017-04-04T12:01:36.933Z,21.34
2017-04-04T12:02:36.801Z,22.70
2017-04-04T12:03:36.771Z,22.24
2017-04-04T12:04:36.719Z,21.57
2017-04-04T12:05:36.659Z,22.23
2017-04-04T12:06:36.667Z,20.39
2017-04-04T12:07:36.605Z,23.13
2017-04-04T12:08:37.319Z,24.69
2017-04-04T12:09:37.238Z,24.04
2017-04-04T12:10:37.964Z,24.69
2017-04-04T12:11:38.663Z,23.59
2017-04-04T12:12:38.673Z,24.26
2017-04-04T12:13:38.583Z,24.37
2017-04-04T12:14:38.528Z,23.60
2017-04-04T12:15:38.488Z,23.01
2017-04-04T12:16:38.457Z,22.76
2017-04-04T12:17:38.482Z,24.34
2017-04-04T12:18:38.415Z,20.30
2017-04-04T12:19:39.195Z,20.79
2017-04-04T12:20:39.128Z,21.30
2017-04-04T12:21:39.108Z,20.66
2017-04-04T12:22:39.054Z,22.09
2017-04-04T12:23:38.970Z,20.76
2017-04-04T12:24:39.780Z,21.83
2017-04-04T12:25:39.738Z,21.73
2017-04-04T12:26:39.709Z,22.46
2017-04-04T12:27:40.436Z,20.47
2017-04-04T12:28:41.175Z,19.66
2017-04-04T12:29:41.972Z,19.33
2017-04-04T12:30:42.008Z,16.51
2017-04-04T12:31:42.698Z,18.14
2017-04-04T12:32:42.683Z,17.41
2017-04-04T12:33:42.661Z,17.24
2017-04-04T12:34:42.582Z,17.99
2017-04-04T12:35:42.527Z,17.57
2017-04-04T12:36:43.218Z,19.60
2017-04-04T12:37:43.199Z,16.97
2017-04-04T12:38:43.145Z,17.30
2017-04-04T12:39:43.110Z,18.69
2017-04-04T12:40:43.098Z,18.20
2017-04-04T12:41:43.170Z,18.43
2017-04-04T12:42:43.437Z,19.70
2017-04-04T12:43:43.302Z,18.76
2017-04-04T12:44:43.996Z,18.99
2017-04-04T12:45:43.911Z,18.86
2017-04-04T12:46:43.881Z,19.46
2017-04-04T12:47:43.854Z,19.47
2017-04-04T12:48:44.681Z,19.43
2017-04-04T12:49:45.372Z,20.50
2017-04-04T12:50:45.382Z,20.54
2017-04-04T12:51:45.614Z,18.34
2017-04-04T12:52:45.456Z,19.27
2017-04-04T12:53:45.414Z,19.93
2017-04-04T12:54:46.118Z,18.50
2017-04-04T12:55:46.069Z,19.57